Terminal Aerodrome Forecast
Issued by NWS

Home | Current Version | Previous Version | Text Only | Print | Product List | Glossary On
Versions: 1 2 3 4 5 6 7 8 9 10 11 12 13 14 15
000
FTUS41 KBTV 060531
TAFRUT
TAF
KRUT 060531Z 0606/0706 06005KT P6SM BKN130
     FM060900 04005KT P6SM SCT100
     FM061600 03009KT P6SM BKN070
     FM062000 07010KT P6SM VCSH BKN045
     FM062300 11008KT P6SM VCSH OVC035
     FM070200 13004KT P6SM VCSH OVC035
      AMD LTD TO CLD VIS AND WIND=

USA.gov is the U.S. government's official web portal to all federal, state and local government web resources and services.